createdAt,value
2022-12-12T00:01:30.074Z,7.50
2022-12-12T00:07:32.035Z,6.90
2022-12-12T00:13:34.442Z,7.93
2022-12-12T00:19:36.483Z,5.67
2022-12-12T00:25:38.376Z,6.80
2022-12-12T00:31:40.321Z,5.30
2022-12-12T00:37:42.291Z,5.80
2022-12-12T00:43:44.660Z,6.10
2022-12-12T00:49:52.491Z,6.40
2022-12-12T00:55:58.446Z,5.90
2022-12-12T01:02:00.407Z,6.70
2022-12-12T01:08:02.430Z,7.43
2022-12-12T01:14:05.130Z,5.67
2022-12-12T01:20:16.141Z,6.63
2022-12-12T01:26:23.404Z,6.97
2022-12-12T01:32:25.373Z,7.40
2022-12-12T01:38:30.668Z,6.53
2022-12-12T01:44:42.159Z,8.03
2022-12-12T01:50:45.371Z,7.00
2022-12-12T01:56:49.832Z,8.53
2022-12-12T02:02:53.839Z,8.47
2022-12-12T02:09:01.089Z,8.90
2022-12-12T02:15:03.861Z,9.30
2022-12-12T02:22:02.429Z,8.90
2022-12-12T02:28:45.091Z,10.73
2022-12-12T02:35:20.479Z,8.67
2022-12-12T02:42:08.437Z,9.20
2022-12-12T02:48:20.979Z,10.03
2022-12-12T02:54:24.191Z,9.63
2022-12-12T03:00:34.626Z,9.60
2022-12-12T03:07:34.639Z,10.63
2022-12-12T03:13:57.759Z,10.70
2022-12-12T03:20:21.106Z,11.63
2022-12-12T03:26:39.971Z,10.67
2022-12-12T03:33:03.676Z,12.13
2022-12-12T03:39:19.375Z,12.40
2022-12-12T03:45:56.402Z,11.60
2022-12-12T03:52:25.754Z,11.20
2022-12-12T03:58:59.676Z,10.97
2022-12-12T04:05:14.802Z,11.77
2022-12-12T04:11:41.774Z,11.40
2022-12-12T04:17:57.557Z,11.10
2022-12-12T04:24:11.382Z,13.00
2022-12-12T04:30:15.961Z,11.63
2022-12-12T04:36:20.322Z,12.10
2022-12-12T04:42:28.579Z,11.20
2022-12-12T04:48:40.936Z,13.37
2022-12-12T04:55:14.963Z,11.37
2022-12-12T05:01:37.180Z,10.97
2022-12-12T05:07:44.413Z,12.30
2022-12-12T05:13:46.315Z,12.07
2022-12-12T05:19:48.227Z,11.27
2022-12-12T05:25:50.137Z,13.67
2022-12-12T05:31:52.345Z,12.80
2022-12-12T05:37:54.641Z,13.03
2022-12-12T05:43:56.620Z,12.33
2022-12-12T05:49:58.643Z,12.57
2022-12-12T05:56:00.747Z,12.00
2022-12-12T06:02:02.941Z,11.50
2022-12-12T06:08:05.149Z,11.40
2022-12-12T06:14:07.240Z,12.10
2022-12-12T06:20:09.820Z,12.23
2022-12-12T06:26:22.753Z,11.17
2022-12-12T06:32:24.746Z,11.43
2022-12-12T06:38:27.061Z,13.17
2022-12-12T06:44:28.999Z,12.70
2022-12-12T06:50:30.931Z,13.73
2022-12-12T06:56:32.999Z,13.03
2022-12-12T07:02:34.923Z,13.23
2022-12-12T07:08:37.976Z,13.07
2022-12-12T07:14:40.255Z,12.90
2022-12-12T07:20:44.385Z,12.90
2022-12-12T07:26:46.375Z,12.13
2022-12-12T07:32:48.303Z,11.40
2022-12-12T07:38:50.382Z,12.53
2022-12-12T07:44:52.316Z,13.20
2022-12-12T07:50:54.328Z,11.80
2022-12-12T07:56:58.276Z,13.40
2022-12-12T08:03:00.168Z,12.40
2022-12-12T08:09:02.125Z,13.00
2022-12-12T08:15:04.530Z,11.97
2022-12-12T08:21:16.659Z,18.03
2022-12-12T08:27:23.297Z,18.83
2022-12-12T08:33:25.254Z,18.07
2022-12-12T08:39:27.267Z,19.20
2022-12-12T08:45:29.220Z,16.70
2022-12-12T08:51:31.258Z,19.07
2022-12-12T08:57:33.130Z,17.90
2022-12-12T09:03:35.057Z,20.50
2022-12-12T09:09:36.977Z,16.80
2022-12-12T09:15:39.121Z,17.17
2022-12-12T09:21:40.990Z,15.60
2022-12-12T09:27:43.662Z,13.20
2022-12-12T09:33:45.664Z,14.17
2022-12-12T09:39:47.623Z,13.60
2022-12-12T09:45:50.205Z,13.57
2022-12-12T09:51:53.360Z,15.20
2022-12-12T09:58:07.280Z,14.53
2022-12-12T10:04:54.479Z,15.57
2022-12-12T10:11:04.714Z,14.20
2022-12-12T10:17:20.581Z,14.63
2022-12-12T10:23:40.423Z,15.20
2022-12-12T10:29:48.645Z,15.30
2022-12-12T10:36:33.218Z,13.90
2022-12-12T10:43:17.983Z,13.43
2022-12-12T10:49:23.808Z,12.60
2022-12-12T10:56:07.229Z,13.60
2022-12-12T11:02:37.987Z,13.50
2022-12-12T11:08:58.856Z,12.27
2022-12-12T11:15:17.296Z,14.50
2022-12-12T11:21:20.927Z,13.37
2022-12-12T11:27:38.045Z,13.57
2022-12-12T11:33:48.334Z,12.03
2022-12-12T11:39:53.077Z,11.47
2022-12-12T11:46:20.640Z,12.80
2022-12-12T11:52:31.686Z,12.70
2022-12-12T11:58:54.392Z,14.43
2022-12-12T12:05:32.078Z,13.43
2022-12-12T12:11:58.068Z,13.83
2022-12-12T12:18:25.134Z,14.10
2022-12-12T12:25:03.196Z,12.67
2022-12-12T12:31:34.061Z,11.83
2022-12-12T12:38:20.475Z,12.20
2022-12-12T12:44:43.556Z,11.00
2022-12-12T12:51:18.048Z,11.27
2022-12-12T12:57:36.266Z,10.33
2022-12-12T13:04:18.059Z,11.10
2022-12-12T13:10:27.219Z,9.60
2022-12-12T13:16:32.859Z,9.13
2022-12-12T13:22:57.608Z,9.57
2022-12-12T13:29:20.193Z,10.30
2022-12-12T13:35:37.672Z,8.50
2022-12-12T13:42:10.525Z,10.47
2022-12-12T13:48:46.781Z,8.37
2022-12-12T13:54:50.304Z,9.70
2022-12-12T14:01:39.247Z,8.70
2022-12-12T14:08:02.663Z,8.90
2022-12-12T14:14:20.302Z,7.87
2022-12-12T14:20:43.626Z,8.50
2022-12-12T14:26:45.365Z,9.17
2022-12-12T14:33:16.298Z,10.07
2022-12-12T14:39:53.503Z,9.20
2022-12-12T14:46:01.425Z,9.70
2022-12-12T14:52:03.764Z,12.33
2022-12-12T14:58:05.681Z,12.97
2022-12-12T15:04:21.156Z,12.57
2022-12-12T15:10:27.681Z,13.70
2022-12-12T15:17:23.389Z,13.43
2022-12-12T15:23:25.385Z,15.60
2022-12-12T15:29:31.034Z,16.33
2022-12-12T15:35:33.307Z,16.63
2022-12-12T15:41:36.371Z,16.30
2022-12-12T15:47:38.350Z,16.90
2022-12-12T15:53:46.653Z,15.07
2022-12-12T16:00:02.106Z,14.40
2022-12-12T16:06:17.841Z,15.70
2022-12-12T16:13:02.733Z,14.60
2022-12-12T16:19:20.375Z,14.97
2022-12-12T16:25:29.428Z,15.40
2022-12-12T16:31:31.447Z,16.60
2022-12-12T16:37:33.703Z,17.40
2022-12-12T16:43:35.940Z,15.83
2022-12-12T16:49:37.818Z,15.50
2022-12-12T16:55:47.729Z,14.40
2022-12-12T17:01:49.611Z,15.30
2022-12-12T17:07:52.950Z,16.20
2022-12-12T17:13:54.875Z,16.77
2022-12-12T17:19:56.753Z,15.23
2022-12-12T17:26:03.952Z,15.20
2022-12-12T17:32:06.498Z,15.43
2022-12-12T17:38:12.923Z,17.70
2022-12-12T17:44:18.625Z,15.23
2022-12-12T17:50:20.522Z,14.70
2022-12-12T17:56:25.024Z,14.13
2022-12-12T18:02:27.109Z,16.77
2022-12-12T18:08:29.278Z,15.90
2022-12-12T18:14:31.535Z,13.67
2022-12-12T18:20:34.231Z,14.40
2022-12-12T18:26:36.255Z,17.03
2022-12-12T18:32:38.166Z,16.17
2022-12-12T18:38:45.749Z,19.00
2022-12-12T18:44:49.415Z,18.87
2022-12-12T18:50:51.360Z,15.30
2022-12-12T18:56:53.343Z,18.70
2022-12-12T19:02:55.249Z,17.73
2022-12-12T19:08:57.286Z,17.20
2022-12-12T19:15:16.187Z,16.40
2022-12-12T19:21:23.145Z,17.27
2022-12-12T19:27:25.106Z,18.20
2022-12-12T19:33:27.363Z,18.57
2022-12-12T19:39:37.010Z,16.80
2022-12-12T19:45:38.966Z,14.07
2022-12-12T19:51:42.740Z,15.80
2022-12-12T19:57:44.845Z,12.30
2022-12-12T20:03:55.516Z,12.90
2022-12-12T20:09:57.415Z,15.07
2022-12-12T20:16:25.595Z,14.80
2022-12-12T20:22:27.512Z,14.70
2022-12-12T20:28:29.551Z,12.00
2022-12-12T20:34:31.547Z,12.97
2022-12-12T20:40:39.250Z,13.80
2022-12-12T20:46:44.805Z,14.40
2022-12-12T20:52:47.659Z,17.10
2022-12-12T20:58:54.603Z,16.07
2022-12-12T21:04:56.495Z,15.40
2022-12-12T21:11:01.891Z,17.97
2022-12-12T21:17:04.873Z,18.67
2022-12-12T21:23:06.772Z,14.60
2022-12-12T21:29:09.224Z,13.60
2022-12-12T21:35:11.138Z,13.77
2022-12-12T21:41:16.603Z,12.50
2022-12-12T21:47:19.601Z,13.67
2022-12-12T21:53:33.928Z,13.73
2022-12-12T21:59:39.228Z,13.40
2022-12-12T22:05:41.131Z,13.60
2022-12-12T22:11:49.427Z,13.07
2022-12-12T22:17:52.982Z,13.30
2022-12-12T22:23:55.677Z,13.27
2022-12-12T22:29:57.558Z,12.50
2022-12-12T22:36:08.471Z,10.37
2022-12-12T22:42:10.360Z,11.23
2022-12-12T22:48:12.297Z,12.40
2022-12-12T22:54:14.757Z,9.20
2022-12-12T23:00:18.611Z,9.93
2022-12-12T23:06:26.571Z,11.53
2022-12-12T23:12:29.083Z,13.10
2022-12-12T23:18:31.046Z,11.83
2022-12-12T23:24:33.054Z,11.37
2022-12-12T23:30:38.183Z,11.97
2022-12-12T23:36:40.214Z,12.23
2022-12-12T23:42:42.177Z,12.50
2022-12-12T23:48:44.043Z,12.10
2022-12-12T23:54:45.938Z,12.13
